createdAt,value
2022-09-05T00:01:03.356Z,16.92
2022-09-05T00:03:19.630Z,16.89
2022-09-05T00:06:03.054Z,16.89
2022-09-05T00:08:13.431Z,16.89
2022-09-05T00:10:23.513Z,16.93
2022-09-05T00:12:28.403Z,16.93
2022-09-05T00:15:14.771Z,16.94
2022-09-05T00:17:34.265Z,16.88
2022-09-05T00:24:20.721Z,16.82
2022-09-05T00:24:24.987Z,16.78
2022-09-05T00:25:30.396Z,16.75
2022-09-05T00:27:40.710Z,16.64
2022-09-05T00:31:08.223Z,16.59
2022-09-05T00:32:43.853Z,16.60
2022-09-05T00:35:02.232Z,16.54
2022-09-05T00:37:06.303Z,16.62
2022-09-05T00:39:14.448Z,16.65
2022-09-05T00:41:19.106Z,16.63
2022-09-05T00:43:24.606Z,16.54
2022-09-05T00:45:36.040Z,16.60
2022-09-05T00:47:48.327Z,16.60
2022-09-05T00:49:59.908Z,16.61
2022-09-05T00:52:08.000Z,16.62
2022-09-05T00:54:40.253Z,16.56
2022-09-05T00:57:06.914Z,16.62
2022-09-05T00:59:58.620Z,16.59
2022-09-05T01:02:07.880Z,16.62
2022-09-05T01:04:24.649Z,16.62
2022-09-05T01:06:41.770Z,16.60
2022-09-05T01:09:09.748Z,16.63
2022-09-05T01:11:19.060Z,16.62
2022-09-05T01:13:36.901Z,16.58
2022-09-05T01:15:51.772Z,16.60
2022-09-05T01:18:14.441Z,16.56
2022-09-05T01:20:40.383Z,16.53
2022-09-05T01:23:06.487Z,16.45
2022-09-05T01:25:28.134Z,16.48
2022-09-05T01:29:13.054Z,16.45
2022-09-05T01:30:23.316Z,16.40
2022-09-05T01:32:42.801Z,16.37
2022-09-05T01:34:57.871Z,16.41
2022-09-05T01:37:08.467Z,16.41
2022-09-05T01:40:15.261Z,16.31
2022-09-05T01:42:29.287Z,16.37
2022-09-05T01:44:49.205Z,16.29
2022-09-05T01:47:00.019Z,16.31
2022-09-05T01:49:14.720Z,16.38
2022-09-05T01:51:31.704Z,16.39
2022-09-05T01:53:43.490Z,16.41
2022-09-05T01:56:12.008Z,16.35
2022-09-05T01:58:18.002Z,16.27
2022-09-05T02:00:25.297Z,16.15
2022-09-05T02:02:50.844Z,16.23
2022-09-05T02:05:09.715Z,16.25
2022-09-05T02:07:31.049Z,16.22
2022-09-05T02:09:42.863Z,16.25
2022-09-05T02:11:52.129Z,16.20
2022-09-05T02:14:00.702Z,16.14
2022-09-05T02:16:13.399Z,16.03
2022-09-05T02:18:21.587Z,16.04
2022-09-05T02:20:31.730Z,16.01
2022-09-05T02:22:43.121Z,16.03
2022-09-05T02:24:49.014Z,16.03
2022-09-05T02:27:12.495Z,16.00
2022-09-05T02:29:40.192Z,16.06
2022-09-05T02:31:48.169Z,16.09
2022-09-05T02:34:02.127Z,16.07
2022-09-05T02:36:11.359Z,16.02
2022-09-05T02:40:23.310Z,15.95
2022-09-05T02:45:13.700Z,15.96
2022-09-05T02:45:19.933Z,15.94
2022-09-05T02:45:57.267Z,15.88
2022-09-05T02:48:15.775Z,15.85
2022-09-05T02:54:42.880Z,15.83
2022-09-05T02:57:37.800Z,15.75
2022-09-05T02:57:46.181Z,15.76
2022-09-05T02:58:16.742Z,15.71
2022-09-05T03:00:22.502Z,15.71
2022-09-05T03:02:32.414Z,15.76
2022-09-05T03:04:44.104Z,15.73
2022-09-05T03:07:05.997Z,15.65
2022-09-05T03:09:25.037Z,15.60
2022-09-05T03:12:28.873Z,15.61
2022-09-05T03:15:23.007Z,15.63
2022-09-05T03:17:53.418Z,15.59
2022-09-05T03:20:39.305Z,15.51
2022-09-05T03:23:23.302Z,15.43
2022-09-05T03:25:59.052Z,15.40
2022-09-05T03:28:35.459Z,15.48
2022-09-05T03:30:50.054Z,15.54
2022-09-05T03:33:24.924Z,15.45
2022-09-05T03:36:16.543Z,15.49
2022-09-05T03:38:55.527Z,15.71
2022-09-05T03:41:11.448Z,15.65
2022-09-05T03:43:41.433Z,15.59
2022-09-05T03:46:00.853Z,15.58
2022-09-05T03:48:48.345Z,15.59
2022-09-05T03:57:07.577Z,15.52
2022-09-05T03:57:23.589Z,15.47
2022-09-05T03:57:25.814Z,15.50
2022-09-05T03:58:57.445Z,15.40
2022-09-05T04:01:17.582Z,15.46
2022-09-05T04:08:09.579Z,15.45
2022-09-05T04:08:19.116Z,15.50
2022-09-05T04:08:46.458Z,15.49
2022-09-05T04:10:56.466Z,15.48
2022-09-05T04:13:05.210Z,15.41
2022-09-05T04:15:17.451Z,15.43
2022-09-05T04:17:28.640Z,15.41
2022-09-05T04:19:36.383Z,15.46
2022-09-05T04:21:47.800Z,15.34
2022-09-05T04:24:03.087Z,15.32
2022-09-05T04:26:21.519Z,15.34
2022-09-05T04:28:48.635Z,15.39
2022-09-05T04:31:03.921Z,15.29
2022-09-05T04:33:16.509Z,15.33
2022-09-05T04:35:38.986Z,15.26
2022-09-05T04:37:55.245Z,15.35
2022-09-05T04:39:58.193Z,15.42
2022-09-05T04:42:14.487Z,15.48
2022-09-05T04:44:20.387Z,15.42
2022-09-05T04:46:27.241Z,15.37
2022-09-05T04:48:49.444Z,15.38
2022-09-05T04:51:11.625Z,15.42
2022-09-05T04:53:27.906Z,15.32
2022-09-05T04:55:33.379Z,15.31
2022-09-05T04:57:41.599Z,15.27
2022-09-05T05:05:08.987Z,15.35
2022-09-05T05:06:02.478Z,15.31
2022-09-05T05:06:11.399Z,15.33
2022-09-05T05:07:11.070Z,15.16
2022-09-05T05:09:21.735Z,15.22
2022-09-05T05:17:55.596Z,15.34
2022-09-05T05:18:00.115Z,15.39
2022-09-05T05:18:11.491Z,15.48
2022-09-05T05:19:17.011Z,15.75
2022-09-05T05:21:26.535Z,15.83
2022-09-05T05:23:37.117Z,15.74
2022-09-05T05:25:49.002Z,15.93
2022-09-05T05:28:08.919Z,15.78
2022-09-05T05:30:27.449Z,15.57
2022-09-05T05:32:45.571Z,15.68
2022-09-05T05:34:54.255Z,15.52
2022-09-05T05:37:07.004Z,15.61
2022-09-05T05:39:14.763Z,15.64
2022-09-05T05:41:25.338Z,15.66
2022-09-05T05:43:37.677Z,15.75
2022-09-05T05:45:40.483Z,15.75
2022-09-05T05:47:45.720Z,15.80
2022-09-05T05:50:05.556Z,15.72
2022-09-05T05:52:54.187Z,15.59
2022-09-05T05:55:08.093Z,15.67
2022-09-05T05:57:41.594Z,15.79
2022-09-05T06:00:01.871Z,15.97
2022-09-05T06:02:46.673Z,16.04
2022-09-05T06:05:21.096Z,15.90
2022-09-05T06:07:45.064Z,15.86
2022-09-05T06:14:51.799Z,15.98
2022-09-05T06:15:08.996Z,16.00
2022-09-05T06:16:41.249Z,16.01
2022-09-05T06:19:18.796Z,16.04
2022-09-05T06:22:06.353Z,15.93
2022-09-05T06:24:49.843Z,16.11
2022-09-05T06:27:13.357Z,16.18
2022-09-05T06:29:34.268Z,16.18
2022-09-05T06:31:59.118Z,16.35
2022-09-05T06:34:32.998Z,16.45
2022-09-05T06:36:53.111Z,16.52
2022-09-05T06:39:06.817Z,16.77
2022-09-05T06:41:26.685Z,17.00
2022-09-05T06:43:45.235Z,17.00
2022-09-05T06:46:15.736Z,17.24
2022-09-05T06:49:29.811Z,17.47
2022-09-05T06:51:34.679Z,17.70
2022-09-05T06:54:03.533Z,17.76
2022-09-05T06:56:44.690Z,17.85
2022-09-05T06:59:26.674Z,17.91
2022-09-05T07:01:53.842Z,18.05
2022-09-05T07:05:14.815Z,18.05
2022-09-05T07:07:06.470Z,18.06
2022-09-05T07:09:23.345Z,18.15
2022-09-05T07:11:41.964Z,18.31
2022-09-05T07:13:55.838Z,18.83
2022-09-05T07:16:06.852Z,19.28
2022-09-05T07:18:22.511Z,19.02
2022-09-05T07:20:34.094Z,19.30
2022-09-05T07:23:20.329Z,19.76
2022-09-05T07:25:37.605Z,19.91
2022-09-05T07:28:26.399Z,19.71
2022-09-05T07:30:08.703Z,19.85
2022-09-05T07:32:22.425Z,20.09
2022-09-05T07:34:30.560Z,20.38
2022-09-05T07:36:39.550Z,20.57
2022-09-05T07:38:52.386Z,20.64
2022-09-05T07:41:04.866Z,20.78
2022-09-05T07:43:10.823Z,20.98
2022-09-05T07:45:21.915Z,21.30
2022-09-05T07:47:28.996Z,21.29
2022-09-05T07:49:36.209Z,21.38
2022-09-05T07:56:49.543Z,22.09
2022-09-05T07:56:59.518Z,22.32
2022-09-05T07:57:22.229Z,22.18
2022-09-05T07:59:15.587Z,22.76
2022-09-05T08:01:22.370Z,23.64
2022-09-05T08:03:29.132Z,24.60
2022-09-05T08:05:42.296Z,24.85
2022-09-05T08:07:51.653Z,25.75
2022-09-05T08:10:08.613Z,25.81
2022-09-05T08:12:17.390Z,24.81
2022-09-05T08:14:46.096Z,24.39
2022-09-05T08:16:49.170Z,24.59
2022-09-05T08:19:01.971Z,24.67
2022-09-05T08:21:11.193Z,25.72
2022-09-05T08:23:25.642Z,25.40
2022-09-05T08:25:48.365Z,24.41
2022-09-05T08:28:07.466Z,24.40
2022-09-05T08:30:27.155Z,23.96
2022-09-05T08:32:41.474Z,23.28
2022-09-05T08:34:50.132Z,23.57
2022-09-05T08:36:56.884Z,24.31
2022-09-05T08:39:02.083Z,24.69
2022-09-05T08:41:13.933Z,24.88
2022-09-05T08:46:35.772Z,25.41
2022-09-05T08:46:39.568Z,26.46
2022-09-05T08:48:38.491Z,26.59
2022-09-05T08:50:56.984Z,27.15
2022-09-05T08:53:35.270Z,27.51
2022-09-05T08:55:45.490Z,27.70
2022-09-05T08:58:26.900Z,27.45
2022-09-05T09:00:35.975Z,27.93
2022-09-05T09:03:04.437Z,28.82
2022-09-05T09:05:19.400Z,30.39
2022-09-05T09:07:50.826Z,29.29
2022-09-05T09:10:04.055Z,28.46
2022-09-05T09:12:15.523Z,31.35
2022-09-05T09:14:33.711Z,31.46
2022-09-05T09:16:41.809Z,30.65
2022-09-05T09:19:04.704Z,30.65
2022-09-05T09:21:25.151Z,30.01
2022-09-05T09:23:46.220Z,30.63
2022-09-05T09:25:55.194Z,30.49
2022-09-05T09:28:50.277Z,33.02
2022-09-05T09:30:30.777Z,32.29
2022-09-05T09:32:41.478Z,32.83
2022-09-05T09:34:55.571Z,36.57
2022-09-05T09:37:16.803Z,35.90
2022-09-05T09:39:38.521Z,34.92
2022-09-05T09:41:59.613Z,36.13
2022-09-05T09:44:23.111Z,33.21
